This is the latest recevied weather packets stored in our database for station/object SIILIN. If no packets are shown the sender has not sent any weather packets the latest 10 day(s).
| Time | Temp. | Humidity | Pressure | Rain* | Wind** | Luminosity | Snow |
|---|---|---|---|---|---|---|---|
| 1777070789 | 5° C | 65% | 1000.5 hPa | - | - | - | - |
| 1777069589 | 5° C | 62% | 1001 hPa | - | - | - | - |
| 1777068389 | 5° C | 65% | 1001.4 hPa | - | - | - | - |
| 1777067189 | 5.56° C | 60% | 1001.7 hPa | - | - | - | - |
| 1777065991 | 5.56° C | 62% | 1001.9 hPa | - | - | - | - |
| 1777064788 | 5.56° C | 63% | 1002 hPa | - | - | - | - |
| 1777063588 | 5.56° C | 58% | 1002.5 hPa | - | - | - | - |
| 1777062388 | 6.11° C | 54% | 1002.8 hPa | - | - | - | - |
| 1777061188 | 6.11° C | 60% | 1003.1 hPa | - | - | - | - |
| 1777059987 | 6.11° C | 53% | 1003.3 hPa | - | - | - | - |
| 1777058788 | 6.11° C | 55% | 1003.3 hPa | - | - | - | - |
| 1777057587 | 6.11° C | 51% | 1003.5 hPa | - | - | - | - |
| 1777056388 | 5.56° C | 51% | 1003.9 hPa | - | - | - | - |
| 1777055187 | 6.67° C | 47% | 1004.1 hPa | - | - | - | - |
| 1777053987 | 6.67° C | 47% | 1004.4 hPa | - | - | - | - |
| 1777052787 | 6.11° C | 52% | 1004.7 hPa | - | - | - | - |
| 1777051587 | 5.56° C | 61% | 1004.8 hPa | - | - | - | - |
| 1777050387 | 6.11° C | 56% | 1005 hPa | - | - | - | - |
| 1777049187 | 6.11° C | 61% | 1005.2 hPa | - | - | - | - |
| 1777047987 | 6.11° C | 58% | 1005.3 hPa | - | - | - | - |
| 1777046787 | 6.67° C | 50% | 1005.6 hPa | - | - | - | - |
| 1777045587 | 7.22° C | 43% | 1005.7 hPa | - | - | - | - |
| 1777044387 | 6.67° C | 48% | 1005.9 hPa | - | - | - | - |
| 1777043186 | 6.67° C | 49% | 1005.9 hPa | - | - | - | - |
| 1777041987 | 6.67° C | 47% | 1006 hPa | - | - | - | - |
* Rain since midnight (hover to see other rain measurements)
** Current wind speed in m/s (hover to see current wind gust speed)